Time;durP1;ratioP1;P1;durP2;ratioP2;P2;SDS_P1;SDS_P2;PMS_P1;PMS_P2;Temp;Humidity;BMP_temperature;BMP_pressure;BME280_temperature;BME280_humidity;BME280_pressure;Samples;Min_cycle;Max_cycle;Signal;HPM_P1;HPM_P2
2021/12/02 00:01:20;;;;;;;0.20;0.20;;;1.30;99.90;;;;;;5010277;28;20096;-85
2021/12/02 00:03:48;;;;;;;0.10;0.10;;;1.30;99.90;;;;;;5007311;28;20046;-85
2021/12/02 00:06:19;;;;;;;7.82;0.47;;;1.30;99.90;;;;;;4994877;28;20158;-79
2021/12/02 00:08:49;;;;;;;1.23;0.40;;;1.30;99.90;;;;;;4976637;28;20140;-78
2021/12/02 00:11:18;;;;;;;0.10;0.10;;;1.30;99.90;;;;;;4976970;28;20086;-86
2021/12/02 00:16:25;;;;;;;1.67;0.43;;;1.30;99.90;;;;;;4995354;28;20125;-86
2021/12/02 00:21:19;;;;;;;0.70;0.40;;;1.20;99.90;;;;;;4994987;28;20569;-88
2021/12/02 00:23:49;;;;;;;5.15;0.40;;;1.20;99.90;;;;;;4978510;28;20054;-88
2021/12/02 00:26:18;;;;;;;1.10;0.20;;;1.30;99.90;;;;;;4978104;28;20085;-87
2021/12/02 00:28:55;;;;;;;0.47;0.25;;;1.30;99.90;;;;;;4977816;28;20145;-90
2021/12/02 00:31:24;;;;;;;0.55;0.25;;;1.20;99.90;;;;;;4984128;28;20061;-79
2021/12/02 00:33:54;;;;;;;3.65;0.32;;;1.40;99.90;;;;;;4993255;28;20393;-89
2021/12/02 00:36:26;;;;;;;2.90;0.50;;;1.30;99.90;;;;;;4977784;28;20565;-88
2021/12/02 00:38:54;;;;;;;0.88;0.30;;;1.30;99.90;;;;;;4976841;28;20149;-87
2021/12/02 00:42:02;;;;;;;1.65;0.40;;;1.20;99.90;;;;;;4977539;28;20106;-91
2021/12/02 00:44:32;;;;;;;0.40;0.20;;;1.30;99.90;;;;;;5006020;28;20053;-92
2021/12/02 00:47:02;;;;;;;0.70;0.35;;;1.30;99.90;;;;;;4982758;28;20089;-92
2021/12/02 00:49:32;;;;;;;0.50;0.28;;;1.30;99.90;;;;;;4978233;28;20074;-90
2021/12/02 00:52:00;;;;;;;0.50;0.30;;;1.30;99.90;;;;;;4995927;28;20046;-94
2021/12/02 00:54:28;;;;;;;0.45;0.30;;;1.20;99.90;;;;;;4978920;28;20070;-93
2021/12/02 00:56:55;;;;;;;1.88;0.75;;;1.30;99.90;;;;;;4995862;28;20089;-93
2021/12/02 00:59:27;;;;;;;2.58;0.52;;;1.20;99.90;;;;;;4995418;28;20551;-91
2021/12/02 01:01:55;;;;;;;4.70;0.40;;;1.20;99.90;;;;;;5013864;28;20562;-92
2021/12/02 01:04:24;;;;;;;1.38;0.30;;;1.20;99.90;;;;;;5003332;28;20050;-91
2021/12/02 01:06:51;;;;;;;1.48;0.40;;;1.20;99.90;;;;;;4978282;28;20082;-91
2021/12/02 01:09:19;;;;;;;0.55;0.30;;;1.20;99.90;;;;;;4977325;28;20085;-90
2021/12/02 01:11:46;;;;;;;3.22;0.60;;;;;;;;;;4994837;28;20089;-89
2021/12/02 01:14:13;;;;;;;0.63;0.40;;;;;;;;;;4994778;28;20054;-87
2021/12/02 01:16:40;;;;;;;0.77;0.50;;;;;;;;;;4994673;28;20085;-89
2021/12/02 01:19:08;;;;;;;0.65;0.55;;;;;;;;;;4977582;28;20526;-90
2021/12/02 01:21:37;;;;;;;0.40;0.32;;;;;;;;;;5009801;28;20106;-90
2021/12/02 01:24:05;;;;;;;0.82;0.60;;;;;;;;;;5009995;28;20134;-91
2021/12/02 01:26:36;;;;;;;1.23;0.65;;;;;;;;;;5010272;28;20093;-91
2021/12/02 01:29:04;;;;;;;1.85;0.90;;;;;;;;;;5014923;28;20069;-90
2021/12/02 01:31:32;;;;;;;3.10;1.05;;;;;;;;;;5015582;28;20454;-91
2021/12/02 01:34:01;;;;;;;2.00;1.05;;;;;;;;;;5008505;28;20046;-90
2021/12/02 01:36:47;;;;;;;1.70;0.95;;;;;;;;;;4995880;28;20101;-89
2021/12/02 01:39:14;;;;;;;2.70;1.20;;;;;;;;;;4993008;28;20470;-89
2021/12/02 01:41:54;;;;;;;8.48;1.55;;;;;;;;;;4994087;28;20094;-89
2021/12/02 01:44:22;;;;;;;3.13;1.52;;;;;;;;;;4994645;28;20089;-88
2021/12/02 01:46:51;;;;;;;4.05;2.05;;;;;;;;;;4976440;28;20078;-90
2021/12/02 01:49:21;;;;;;;3.95;2.08;;;;;;;;;;4993962;28;20133;-89
2021/12/02 01:51:54;;;;;;;6.28;2.35;;;;;;;;;;4993515;28;20081;-91
2021/12/02 01:54:22;;;;;;;5.57;2.20;;;;;;;;;;4993913;28;20101;-90
2021/12/02 01:57:07;;;;;;;3.70;2.00;;;;;;;;;;4974501;28;20113;-91
2021/12/02 01:59:36;;;;;;;3.40;1.77;;;;;;;;;;4987778;28;20081;-91
2021/12/02 02:02:06;;;;;;;4.72;2.22;;;;;;;;;;4976629;28;20499;-90
2021/12/02 02:04:34;;;;;;;6.20;2.17;;;;;;;;;;4993929;28;20058;-92
2021/12/02 02:07:06;;;;;;;3.20;1.88;;;;;;;;;;4994090;28;20484;-92
2021/12/02 02:09:35;;;;;;;5.75;2.42;;;;;;;;;;4994115;28;20046;-92
2021/12/02 02:12:03;;;;;;;5.35;2.47;;;;;;;;;;4976722;28;20545;-92
2021/12/02 02:14:30;;;;;;;7.38;2.35;;;;;;;;;;4994054;28;20408;-91
2021/12/02 02:17:01;;;;;;;4.07;2.30;;;;;;;;;;4994053;28;20050;-90
2021/12/02 02:19:30;;;;;;;5.05;2.20;;;;;;;;;;4993513;28;20100;-91
2021/12/02 02:21:59;;;;;;;6.40;1.90;;;;;;;;;;4993720;28;20125;-90
2021/12/02 02:24:26;;;;;;;3.80;1.92;;;;;;;;;;4993231;28;20050;-89
2021/12/02 02:26:53;;;;;;;5.38;1.77;;;;;;;;;;4993534;28;20050;-90
2021/12/02 02:29:20;;;;;;;6.72;2.05;;;;;;;;;;4993160;28;20052;-92
2021/12/02 02:31:49;;;;;;;18.42;2.35;;;;;;;;;;5011847;28;20437;-92
2021/12/02 02:34:16;;;;;;;5.20;1.95;;;;;;;;;;5013894;28;20077;-91
2021/12/02 02:36:54;;;;;;;5.05;2.00;;;;;;;;;;5013369;28;20125;-91
2021/12/02 02:39:21;;;;;;;5.15;2.47;;;;;;;;;;4997338;28;20077;-90
2021/12/02 02:42:00;;;;;;;5.45;2.10;;;;;;;;;;5002807;28;20128;-92
2021/12/02 02:44:28;;;;;;;4.70;1.88;;;;;;;;;;5002329;28;20046;-92
2021/12/02 02:46:56;;;;;;;7.78;2.17;;;;;;;;;;4994290;28;20144;-92
2021/12/02 02:49:23;;;;;;;12.15;2.33;;;;;;;;;;4994068;28;20085;-91
2021/12/02 02:51:50;;;;;;;3.83;2.05;;;;;;;;;;4992552;28;20129;-92
2021/12/02 02:54:29;;;;;;;7.60;2.03;;;;;;;;;;4976506;28;20050;-92
2021/12/02 02:57:01;;;;;;;8.55;2.25;;;;;;;;;;4976640;28;20133;-92
2021/12/02 02:59:43;;;;;;;7.78;2.05;;;;;;;;;;5000368;28;20471;-91
2021/12/02 03:02:29;;;;;;;6.28;1.77;;;;;;;;;;5013337;28;20050;-91
2021/12/02 03:05:20;;;;;;;4.50;1.90;;;;;;;;;;5011074;28;20085;-91
2021/12/02 03:11:28;;;;;;;7.90;1.73;;;;;;;;;;5014524;28;20072;-92
2021/12/02 03:13:55;;;;;;;3.47;1.67;;;;;;;;;;5016405;28;20050;-92
2021/12/02 03:19:26;;;;;;;3.05;1.55;;;;;;;;;;4997720;28;20089;-90
2021/12/02 03:22:05;;;;;;;4.22;1.90;;;;;;;;;;4995669;28;20145;-90
2021/12/02 03:24:32;;;;;;;6.30;1.95;;;;;;;;;;4993934;28;20116;-91
2021/12/02 03:27:00;;;;;;;10.00;1.90;;;;;;;;;;4993256;28;20043;-90
2021/12/02 03:29:27;;;;;;;6.80;1.90;;;;;;;;;;4976704;28;20074;-91
2021/12/02 03:31:54;;;;;;;7.30;2.25;;;;;;;;;;4993112;28;20081;-90
2021/12/02 03:34:21;;;;;;;3.03;1.58;;;;;;;;;;4992780;28;20082;-91
2021/12/02 03:36:48;;;;;;;7.80;2.28;;;;;;;;;;4992473;28;20093;-90
2021/12/02 03:39:16;;;;;;;2.90;1.58;;;;;;;;;;4974925;28;20077;-89
2021/12/02 03:41:44;;;;;;;4.65;1.92;;;;;;;;;;4991989;28;20129;-88
2021/12/02 03:44:11;;;;;;;5.88;1.95;;;;;;;;;;4992398;28;20050;-88
2021/12/02 03:46:39;;;;;;;5.10;1.75;;;;;;;;;;4992188;28;20066;-88
2021/12/02 03:49:07;;;;;;;8.85;1.63;;;;;;;;;;4991453;28;20050;-87
2021/12/02 03:51:34;;;;;;;4.05;1.92;;;;;;;;;;4991917;28;20479;-88
2021/12/02 03:54:01;;;;;;;6.45;2.25;;;;;;;;;;4991708;28;20097;-87
2021/12/02 03:56:29;;;;;;;6.13;1.70;;;;;;;;;;5006989;28;20070;-87
2021/12/02 03:58:56;;;;;;;7.38;1.75;;;;;;;;;;5006470;28;20082;-88
2021/12/02 04:01:23;;;;;;;4.07;1.50;;;;;;;;;;5005340;28;20077;-86
2021/12/02 04:03:51;;;;;;;9.07;1.95;;;;;;;;;;4996261;28;20080;-88
2021/12/02 04:06:19;;;;;;;6.38;2.10;;;;;;;;;;5006697;28;20480;-87
2021/12/02 04:08:50;;;;;;;6.18;1.80;;;;;;;;;;4991731;28;20085;-88
2021/12/02 04:11:25;;;;;;;6.85;1.75;;;;;;;;;;4990663;28;20050;-87
2021/12/02 04:16:23;;;;;;;9.52;1.95;;;;;;;;;;4994139;28;20129;-87
2021/12/02 04:18:51;;;;;;;4.30;2.00;;;;;;;;;;4995397;28;20060;-88
2021/12/02 04:21:18;;;;;;;3.08;1.58;;;;;;;;;;4977644;28;20141;-87
2021/12/02 04:23:46;;;;;;;3.45;1.50;;;;;;;;;;4995213;28;20149;-87
2021/12/02 04:26:13;;;;;;;5.57;2.10;;;;;;;;;;4995527;28;20046;-87
2021/12/02 04:28:40;;;;;;;3.55;1.65;;;;;;;;;;4994772;28;20050;-88
2021/12/02 04:31:07;;;;;;;7.82;1.88;;;;;;;;;;4994560;28;20077;-88
2021/12/02 04:33:35;;;;;;;10.63;2.00;;;;;;;;;;4995692;28;20050;-87
2021/12/02 04:36:03;;;;;;;3.90;1.90;;;;;;;;;;4994722;28;20114;-87
2021/12/02 04:38:30;;;;;;;5.03;1.80;;;;;;;;;;5009929;28;20483;-87
2021/12/02 04:40:57;;;;;;;6.25;2.17;;;;;;;;;;4994546;28;20109;-87
2021/12/02 04:43:24;;;;;;;4.00;1.90;;;;;;;;;;4994732;28;20046;-87
2021/12/02 04:45:52;;;;;;;6.18;2.17;;;;;;;;;;4977603;28;20062;-86
2021/12/02 04:48:20;;;;;;;4.97;1.90;;;;;;;;;;5007572;28;20112;-86
2021/12/02 04:50:47;;;;;;;7.35;2.05;;;;;;;;;;4993902;28;20073;-86
2021/12/02 04:53:15;;;;;;;4.90;2.10;;;;;;;;;;5009196;28;20097;-86
2021/12/02 04:55:43;;;;;;;6.78;2.00;;;;;;;;;;4994449;28;20061;-86
2021/12/02 04:58:10;;;;;;;5.03;2.10;;;;;;;;;;4993953;28;20471;-86
2021/12/02 05:00:37;;;;;;;11.05;2.50;;;;;;;;;;4994006;28;20065;-87
2021/12/02 05:03:05;;;;;;;6.00;1.98;;;;;;;;;;4994695;28;20051;-86
2021/12/02 05:05:33;;;;;;;4.43;2.25;;;;;;;;;;4976551;28;20103;-85
2021/12/02 05:08:11;;;;;;;6.03;2.40;;;;;;;;;;4994670;28;20058;-86
2021/12/02 05:10:38;;;;;;;9.52;2.13;;;1.40;99.90;;;;;;4994434;28;20074;-86
2021/12/02 05:13:05;;;;;;;4.68;2.08;;;1.40;99.90;;;;;;4972914;28;20057;-86
2021/12/02 05:15:32;;;;;;;3.95;1.98;;;1.40;99.90;;;;;;4980028;28;20101;-88
2021/12/02 05:17:59;;;;;;;5.82;2.40;;;1.20;99.90;;;;;;5000631;28;20177;-86
2021/12/02 05:20:25;;;;;;;5.88;2.00;;;1.20;99.90;;;;;;4992516;28;20161;-87
2021/12/02 05:22:54;;;;;;;6.28;2.15;;;1.20;99.90;;;;;;4976970;28;20101;-88
2021/12/02 05:25:21;;;;;;;11.00;2.15;;;1.20;99.90;;;;;;4994370;28;20137;-88
2021/12/02 05:27:48;;;;;;;6.82;2.15;;;1.10;99.90;;;;;;4974361;28;20085;-87
2021/12/02 05:30:15;;;;;;;6.20;2.42;;;1.10;99.90;;;;;;4988746;28;20107;-88
2021/12/02 05:32:42;;;;;;;3.08;1.63;;;1.20;99.90;;;;;;5013270;28;20077;-90
2021/12/02 05:35:18;;;;;;;7.50;2.25;;;1.20;99.90;;;;;;5014435;28;20458;-88
2021/12/02 05:37:46;;;;;;;6.43;2.13;;;1.20;99.90;;;;;;4997882;28;20153;-89
2021/12/02 05:40:13;;;;;;;4.05;1.88;;;1.20;99.90;;;;;;4976588;28;20082;-89
2021/12/02 05:42:40;;;;;;;13.75;2.17;;;1.20;99.90;;;;;;4977139;28;20046;-89
2021/12/02 05:45:07;;;;;;;5.75;2.63;;;1.20;99.90;;;;;;4977629;28;20137;-89
2021/12/02 05:47:33;;;;;;;26.13;7.72;;;1.20;99.90;;;;;;4993587;28;20054;-88
2021/12/02 05:50:00;;;;;;;15.77;4.40;;;1.20;99.90;;;;;;4976130;28;20141;-89
2021/12/02 05:52:27;;;;;;;8.80;2.80;;;1.20;99.90;;;;;;4993816;28;20138;-89
2021/12/02 05:54:53;;;;;;;9.77;2.13;;;1.30;99.90;;;;;;4977041;28;20100;-89
2021/12/02 05:57:20;;;;;;;5.82;2.90;;;1.30;99.90;;;;;;4979722;28;20467;-89
2021/12/02 05:59:47;;;;;;;7.38;2.67;;;1.30;99.90;;;;;;5007023;28;20129;-89
2021/12/02 06:02:14;;;;;;;4.88;2.67;;;1.20;99.90;;;;;;4997196;28;20081;-90
2021/12/02 06:04:42;;;;;;;4.25;1.67;;;1.30;99.90;;;;;;5017799;28;20080;-89
2021/12/02 06:07:09;;;;;;;4.00;1.40;;;1.30;99.90;;;;;;4998155;28;20097;-90
2021/12/02 06:09:52;;;;;;;10.48;1.83;;;1.30;99.90;;;;;;4993869;28;20476;-90
2021/12/02 06:12:19;;;;;;;8.05;1.60;;;1.30;99.90;;;;;;4994083;28;20081;-90
2021/12/02 06:14:46;;;;;;;3.85;1.50;;;1.30;99.90;;;;;;4977591;28;20428;-90
2021/12/02 06:17:13;;;;;;;13.25;6.35;;;1.30;99.90;;;;;;4994502;28;20137;-89
2021/12/02 06:19:45;;;;;;;8.50;3.70;;;1.30;99.90;;;;;;4977332;28;20097;-90
2021/12/02 06:22:13;;;;;;;10.85;2.92;;;1.30;99.90;;;;;;4976763;28;20140;-90
2021/12/02 06:24:44;;;;;;;9.60;4.47;;;1.30;99.90;;;;;;4994546;28;20652;-90
2021/12/02 06:27:10;;;;;;;10.60;5.45;;;1.30;99.90;;;;;;4994926;28;20170;-90
2021/12/02 06:29:38;;;;;;;16.33;2.00;;;1.30;99.90;;;;;;5010116;28;20125;-90
2021/12/02 06:32:06;;;;;;;9.80;2.17;;;1.30;99.90;;;;;;4996823;28;20088;-91
2021/12/02 06:34:33;;;;;;;12.50;2.13;;;1.40;99.90;;;;;;5013999;28;20081;-89
2021/12/02 06:37:01;;;;;;;11.95;3.15;;;1.30;99.90;;;;;;4999916;28;20050;-89
2021/12/02 06:39:27;;;;;;;13.10;6.05;;;1.30;99.90;;;;;;4980438;28;20077;-89
2021/12/02 06:41:55;;;;;;;9.85;2.92;;;1.30;99.90;;;;;;4994165;28;20070;-89
2021/12/02 06:44:22;;;;;;;11.57;4.13;;;1.40;99.90;;;;;;4992730;28;20081;-89
2021/12/02 06:46:48;;;;;;;5.57;2.45;;;1.30;99.90;;;;;;4976235;28;20145;-89
2021/12/02 06:49:15;;;;;;;12.77;2.90;;;1.30;99.90;;;;;;4992656;28;20606;-90
2021/12/02 06:51:42;;;;;;;9.55;2.78;;;1.40;99.90;;;;;;4993023;28;20160;-88
2021/12/02 06:54:09;;;;;;;9.63;4.82;;;1.40;99.90;;;;;;4992418;28;20777;-88
2021/12/02 06:56:50;;;;;;;12.82;1.77;;;1.40;99.90;;;;;;4992693;28;20051;-88
2021/12/02 06:59:18;;;;;;;9.02;1.35;;;1.40;99.90;;;;;;4974697;28;20046;-88
2021/12/02 07:01:45;;;;;;;5.38;1.48;;;1.40;99.90;;;;;;4992036;28;20130;-88
2021/12/02 07:04:13;;;;;;;6.55;1.60;;;1.40;99.90;;;;;;4992432;28;20053;-88
2021/12/02 07:06:40;;;;;;;16.10;1.63;;;1.40;99.90;;;;;;4974817;28;20054;-87
2021/12/02 07:09:07;;;;;;;6.25;1.55;;;1.50;99.90;;;;;;4992167;28;20061;-86
2021/12/02 07:11:37;;;;;;;6.47;1.55;;;1.40;99.90;;;;;;4991983;28;20101;-86
2021/12/02 07:14:07;;;;;;;5.60;1.55;;;1.50;99.90;;;;;;4974682;28;20463;-85
2021/12/02 07:16:35;;;;;;;6.78;1.65;;;1.40;99.90;;;;;;4975003;28;20082;-85
2021/12/02 07:19:07;;;;;;;10.55;1.70;;;1.40;99.90;;;;;;4991788;28;20061;-85
2021/12/02 07:21:37;;;;;;;19.63;1.65;;;1.40;99.90;;;;;;4992710;28;20055;-85
2021/12/02 07:24:04;;;;;;;14.25;1.58;;;1.50;99.90;;;;;;4990213;28;20054;-84
2021/12/02 07:26:34;;;;;;;8.45;1.35;;;1.50;99.90;;;;;;4991757;28;20112;-84
2021/12/02 07:29:01;;;;;;;8.68;1.38;;;1.40;99.90;;;;;;4974178;28;20097;-83
2021/12/02 07:31:30;;;;;;;12.07;2.08;;;1.50;99.90;;;;;;4991757;28;20051;-83
2021/12/02 07:34:03;;;;;;;7.82;1.80;;;1.50;99.90;;;;;;4991604;28;20046;-81
2021/12/02 07:36:30;;;;;;;10.30;1.65;;;1.50;99.90;;;;;;4991301;28;20070;-79
2021/12/02 07:39:07;;;;;;;7.28;1.25;;;1.50;99.90;;;;;;4973856;28;20408;-81
2021/12/02 07:41:35;;;;;;;19.63;2.10;;;1.50;99.90;;;;;;4985004;28;20074;-83
2021/12/02 07:44:02;;;;;;;8.52;1.35;;;1.50;99.90;;;;;;4986942;28;20078;-84
2021/12/02 07:46:31;;;;;;;13.93;1.70;;;1.60;99.90;;;;;;4954765;28;20058;-83
2021/12/02 07:48:58;;;;;;;11.80;1.48;;;1.50;99.90;;;;;;4970224;28;20058;-82
2021/12/02 07:51:29;;;;;;;11.73;1.15;;;1.50;99.90;;;;;;4983787;28;20121;-81
2021/12/02 07:54:01;;;;;;;7.00;1.80;;;1.50;99.90;;;;;;4958894;28;20090;-83
2021/12/02 07:56:32;;;;;;;7.85;1.23;;;1.60;99.90;;;;;;4975442;28;20122;-83
2021/12/02 07:59:03;;;;;;;7.88;1.40;;;1.50;99.90;;;;;;4970811;28;20410;-83
2021/12/02 08:01:34;;;;;;;12.65;1.90;;;1.50;99.90;;;;;;4989317;28;20500;-83
2021/12/02 08:04:25;;;;;;;12.27;1.88;;;1.60;99.90;;;;;;4978293;28;20125;-85
2021/12/02 08:06:51;;;;;;;8.55;1.52;;;1.60;99.90;;;;;;4995709;28;20105;-88
2021/12/02 08:09:18;;;;;;;11.18;1.52;;;1.50;99.90;;;;;;4995460;28;20108;-87
2021/12/02 08:11:45;;;;;;;6.40;1.73;;;1.50;99.90;;;;;;4978458;28;20776;-85
2021/12/02 08:14:15;;;;;;;13.10;2.15;;;1.60;99.90;;;;;;4978176;28;20054;-87
2021/12/02 08:16:49;;;;;;;10.57;2.10;;;1.60;99.90;;;;;;4995313;28;20132;-88
2021/12/02 08:19:16;;;;;;;18.77;2.92;;;1.60;99.90;;;;;;4977799;28;20483;-86
2021/12/02 08:21:43;;;;;;;6.85;1.58;;;1.70;99.90;;;;;;4978069;28;20126;-84
2021/12/02 08:24:10;;;;;;;15.73;2.15;;;1.60;99.90;;;;;;4977623;28;20101;-84
2021/12/02 08:26:39;;;;;;;5.65;1.77;;;1.60;99.90;;;;;;4977555;28;20070;-83
2021/12/02 08:29:06;;;;;;;17.25;2.10;;;1.60;99.90;;;;;;4992796;28;20088;-82
2021/12/02 08:31:33;;;;;;;11.50;2.33;;;1.70;99.90;;;;;;4994825;28;20110;-82
2021/12/02 08:34:01;;;;;;;11.55;2.13;;;1.60;99.90;;;;;;4977297;28;20046;-80
2021/12/02 08:36:37;;;;;;;5.68;1.92;;;1.60;99.90;;;;;;4976931;28;20077;-82
2021/12/02 08:39:07;;;;;;;13.52;2.60;;;1.60;99.90;;;;;;4994596;28;20085;-83
2021/12/02 08:41:44;;;;;;;8.20;1.90;;;1.60;99.90;;;;;;4994709;28;20043;-83
2021/12/02 08:44:11;;;;;;;12.20;2.17;;;1.70;99.90;;;;;;4994812;28;20093;-83
2021/12/02 08:46:37;;;;;;;7.78;2.85;;;1.70;99.90;;;;;;4994564;28;20062;-81
2021/12/02 08:49:04;;;;;;;12.68;1.85;;;1.70;99.90;;;;;;4977274;28;20775;-81
2021/12/02 08:51:31;;;;;;;6.43;1.95;;;1.70;99.90;;;;;;4977256;28;20466;-82
2021/12/02 08:53:58;;;;;;;11.63;2.40;;;1.60;99.90;;;;;;4993624;28;20046;-82
2021/12/02 08:56:25;;;;;;;21.75;2.53;;;1.70;99.90;;;;;;4993191;28;20478;-82
2021/12/02 08:58:52;;;;;;;9.60;1.83;;;1.70;99.90;;;;;;4975861;28;20086;-81
2021/12/02 09:01:23;;;;;;;4.03;1.63;;;1.70;99.90;;;;;;4976692;28;20150;-82
2021/12/02 09:03:50;;;;;;;15.60;3.20;;;1.70;99.90;;;;;;4994770;28;20078;-82
2021/12/02 09:06:21;;;;;;;9.15;2.20;;;1.70;99.90;;;;;;4977229;28;20053;-82
2021/12/02 09:08:50;;;;;;;13.60;2.05;;;1.60;99.90;;;;;;4977323;28;20042;-82
2021/12/02 09:11:27;;;;;;;11.27;2.08;;;1.70;99.90;;;;;;4974695;28;20085;-83
2021/12/02 09:13:58;;;;;;;7.55;2.97;;;1.70;99.90;;;;;;4961052;28;20624;-83
2021/12/02 09:16:40;;;;;;;8.68;1.92;;;1.70;99.90;;;;;;4991110;28;20110;-83
2021/12/02 09:19:07;;;;;;;10.73;1.92;;;1.70;99.90;;;;;;4977766;28;20105;-83
2021/12/02 09:21:36;;;;;;;12.60;2.45;;;1.70;99.90;;;;;;4994611;28;20046;-82
2021/12/02 09:24:03;;;;;;;10.23;1.83;;;1.80;99.90;;;;;;4976954;28;20121;-86
2021/12/02 09:26:30;;;;;;;7.30;2.00;;;1.80;99.90;;;;;;4977531;28;20101;-85
2021/12/02 09:28:58;;;;;;;18.55;2.30;;;1.70;99.90;;;;;;4985936;28;20049;-84
2021/12/02 09:31:30;;;;;;;8.40;2.30;;;1.80;99.90;;;;;;4976925;28;20086;-81
2021/12/02 09:33:57;;;;;;;14.88;2.40;;;1.80;99.90;;;;;;4994860;28;20082;-81
2021/12/02 09:36:25;;;;;;;10.60;2.03;;;1.80;99.90;;;;;;4957415;28;20456;-83
2021/12/02 09:38:52;;;;;;;12.10;3.00;;;1.80;99.90;;;;;;4975090;28;20137;-83
2021/12/02 09:41:19;;;;;;;10.48;2.10;;;1.80;99.90;;;;;;4973155;28;20073;-82
2021/12/02 09:44:03;;;;;;;6.25;2.05;;;1.80;99.90;;;;;;4995757;28;20089;-83
2021/12/02 09:46:31;;;;;;;8.73;1.90;;;1.80;99.90;;;;;;4965400;28;20130;-84
2021/12/02 09:49:03;;;;;;;6.07;1.92;;;1.80;99.90;;;;;;4974594;28;20051;-84
2021/12/02 09:51:36;;;;;;;7.45;2.08;;;1.80;99.90;;;;;;4993358;28;20082;-87
2021/12/02 09:54:26;;;;;;;6.35;2.30;;;1.80;99.90;;;;;;4976036;28;20052;-85
2021/12/02 09:56:56;;;;;;;8.77;2.78;;;1.90;99.90;;;;;;4964238;28;20129;-86
2021/12/02 09:59:25;;;;;;;10.82;2.45;;;1.90;99.90;;;;;;4980130;28;20081;-86
2021/12/02 10:01:59;;;;;;;8.73;1.73;;;1.90;99.90;;;;;;4993006;28;20066;-85
2021/12/02 10:04:58;;;;;;;9.35;1.90;;;1.80;99.90;;;;;;4975455;28;20050;-84
2021/12/02 10:10:27;;;;;;;8.18;2.03;;;2.00;99.90;;;;;;4992572;28;20142;-87
2021/12/02 10:15:38;;;;;;;13.32;2.00;;;2.00;99.90;;;;;;4927758;29;20110;-85
2021/12/02 10:18:14;;;;;;;9.50;2.17;;;1.90;99.90;;;;;;4934304;29;20495;-83
2021/12/02 10:20:44;;;;;;;8.15;1.83;;;2.00;99.90;;;;;;4929359;29;20047;-87
2021/12/02 10:25:58;;;;;;;14.95;2.28;;;1.90;99.90;;;;;;4928554;29;20686;-85
2021/12/02 10:28:27;;;;;;;28.30;3.80;;;1.90;99.90;;;;;;4960492;23;20042;-92
2021/12/02 10:31:00;;;;;;;3.40;1.55;;;1.90;99.90;;;;;;5003271;28;20072;-88
2021/12/02 10:33:37;;;;;;;4.13;1.67;;;2.00;99.90;;;;;;5013734;28;20087;-88
2021/12/02 10:36:21;;;;;;;7.43;1.38;;;2.10;99.90;;;;;;4987568;28;20099;-89
2021/12/02 10:38:50;;;;;;;5.55;1.45;;;2.10;99.90;;;;;;4993989;28;20567;-87
2021/12/02 10:41:26;;;;;;;6.80;1.48;;;2.30;99.90;;;;;;4987320;28;20469;-91
2021/12/02 10:44:29;;;;;;;7.85;1.50;;;2.20;99.90;;;;;;5003188;28;20116;-89
2021/12/02 10:47:13;;;;;;;2.28;1.30;;;2.30;99.90;;;;;;4989229;28;20053;-91
2021/12/02 10:49:42;;;;;;;7.30;1.33;;;2.40;99.90;;;;;;4989867;28;20191;-93
2021/12/02 10:52:30;;;;;;;7.97;1.55;;;2.40;99.90;;;;;;4995070;28;20046;-87
2021/12/02 10:54:57;;;;;;;5.10;1.45;;;2.40;99.90;;;;;;5013196;28;20046;-93
2021/12/02 10:57:32;;;;;;;3.55;1.48;;;2.40;99.90;;;;;;4996061;28;20045;-92
2021/12/02 11:00:12;;;;;;;10.88;1.58;;;2.40;99.90;;;;;;4991507;28;20081;-86
2021/12/02 11:02:46;;;;;;;6.40;1.25;;;2.40;99.90;;;;;;5027746;28;20128;-90
2021/12/02 11:05:35;;;;;;;7.03;1.77;;;2.40;99.90;;;;;;4995757;28;20058;-91
2021/12/02 11:08:02;;;;;;;9.88;2.28;;;2.40;99.90;;;;;;4988759;28;20061;-90
2021/12/02 11:10:39;;;;;;;7.47;1.60;;;2.40;99.90;;;;;;4993946;28;20133;-85
2021/12/02 11:13:08;;;;;;;6.07;1.60;;;2.40;99.90;;;;;;4993347;28;20124;-86
2021/12/02 11:15:37;;;;;;;6.50;1.42;;;2.50;99.90;;;;;;4994611;28;20137;-88
2021/12/02 11:18:09;;;;;;;4.47;1.33;;;2.40;99.90;;;;;;5012259;28;20046;-89
2021/12/02 11:20:42;;;;;;;8.38;1.95;;;2.30;99.90;;;;;;5009223;28;20084;-90
2021/12/02 11:23:45;;;;;;;6.28;1.40;;;2.10;99.90;;;;;;5012348;28;20091;-91
2021/12/02 11:26:18;;;;;;;5.82;1.90;;;2.00;99.90;;;;;;4998155;28;20112;-90
2021/12/02 11:28:45;;;;;;;9.82;2.05;;;1.90;99.90;;;;;;4996542;28;20465;-90
2021/12/02 11:31:19;;;;;;;14.88;1.60;;;1.90;99.90;;;;;;4999228;28;20057;-91
2021/12/02 11:33:48;;;;;;;4.82;2.03;;;2.00;99.90;;;;;;5017027;28;20046;-91
2021/12/02 11:36:26;;;;;;;10.50;1.67;;;2.00;99.90;;;;;;5016587;28;20049;-86
2021/12/02 11:38:56;;;;;;;7.28;1.85;;;2.20;99.90;;;;;;4998375;28;20088;-87
2021/12/02 11:41:24;;;;;;;9.23;1.77;;;2.40;99.90;;;;;;4995165;28;20054;-88
2021/12/02 11:43:58;;;;;;;8.48;1.58;;;2.50;99.90;;;;;;4996518;28;20081;-88
2021/12/02 11:46:25;;;;;;;5.22;1.58;;;2.50;99.90;;;;;;4978785;28;20140;-88
2021/12/02 11:48:53;;;;;;;12.57;2.20;;;2.60;99.90;;;;;;4996455;28;20137;-88
2021/12/02 11:51:26;;;;;;;6.10;1.30;;;2.50;99.90;;;;;;5013406;28;20069;-89
2021/12/02 11:54:20;;;;;;;5.18;1.50;;;2.50;99.90;;;;;;4997248;28;20133;-91
2021/12/02 11:56:48;;;;;;;4.95;1.63;;;2.40;99.90;;;;;;4997416;28;20061;-88
2021/12/02 11:59:16;;;;;;;6.85;1.65;;;2.60;99.90;;;;;;4996957;28;20511;-88
2021/12/02 12:01:57;;;;;;;8.85;1.60;;;2.70;99.90;;;;;;5013631;28;20076;-90
2021/12/02 12:04:25;;;;;;;3.50;1.45;;;2.80;99.90;;;;;;4991661;28;20096;-88
2021/12/02 12:07:13;;;;;;;7.95;1.40;;;2.80;99.90;;;;;;4987819;28;20053;-90
2021/12/02 12:09:44;;;;;;;3.03;1.38;;;2.90;99.90;;;;;;5012129;28;20156;-89
2021/12/02 12:12:16;;;;;;;6.78;1.80;;;3.10;99.90;;;;;;4998475;28;20053;-87
2021/12/02 12:14:48;;;;;;;7.93;2.10;;;3.00;99.90;;;;;;4994896;28;20100;-84
2021/12/02 12:17:17;;;;;;;2.63;1.50;;;2.90;99.90;;;;;;4996156;28;20080;-81
2021/12/02 12:19:53;;;;;;;11.60;2.03;;;2.80;99.90;;;;;;4987057;28;20092;-82
2021/12/02 12:22:31;;;;;;;;;;;2.70;99.90;;;;;;5015359;28;20042;-80
2021/12/02 12:25:03;;;;;;;3.70;1.65;;;2.60;99.90;;;;;;4996690;28;19921;-81
2021/12/02 12:27:32;;;;;;;6.82;1.52;;;2.50;99.90;;;;;;4997217;28;20057;-81
2021/12/02 12:30:08;;;;;;;6.10;1.80;;;2.60;99.90;;;;;;4993472;28;20075;-81
2021/12/02 12:33:06;;;;;;;6.10;1.92;;;2.50;99.90;;;;;;4998211;28;20384;-81
2021/12/02 12:38:19;;;;;;;;;;;2.50;99.90;;;;;;5005281;28;20046;-81
2021/12/02 12:40:49;;;;;;;5.55;2.05;;;2.50;99.90;;;;;;5013740;28;19963;-82
2021/12/02 12:43:20;;;;;;;7.40;1.75;;;2.40;99.90;;;;;;5012343;28;20076;-82
2021/12/02 12:45:48;;;;;;;13.60;2.28;;;2.30;99.90;;;;;;5011475;28;20487;-81
2021/12/02 12:48:30;;;;;;;10.52;2.35;;;2.20;99.90;;;;;;5014153;28;20137;-81
2021/12/02 12:51:25;;;;;;;11.73;2.50;;;2.20;99.90;;;;;;4978779;28;20046;-81
2021/12/02 12:53:58;;;;;;;6.68;2.50;;;2.20;99.90;;;;;;4980364;28;20404;-82
2021/12/02 12:56:26;;;;;;;7.78;2.15;;;2.20;99.90;;;;;;4996502;28;20081;-82
2021/12/02 12:58:53;;;;;;;6.57;1.95;;;2.30;99.90;;;;;;5009713;28;20054;-81
2021/12/02 13:01:22;;;;;;;3.95;1.52;;;2.10;99.90;;;;;;5013332;28;20054;-81
2021/12/02 13:04:14;;;;;;;3.97;1.60;;;2.00;99.90;;;;;;4986135;28;20056;-81
2021/12/02 13:06:51;;;;;;;15.77;2.35;;;1.90;99.90;;;;;;4997162;28;20083;-82
2021/12/02 13:09:41;;;;;;;6.20;2.20;;;1.80;99.90;;;;;;4992177;28;20058;-83
2021/12/02 13:12:15;;;;;;;10.23;2.95;;;1.70;99.90;;;;;;4994461;28;20058;-83
2021/12/02 13:14:42;;;;;;;9.07;2.70;;;1.60;99.90;;;;;;4983937;28;20050;-83
2021/12/02 13:17:38;;;;;;;17.50;2.45;;;1.60;99.90;;;;;;5014027;28;20046;-84
2021/12/02 13:20:16;;;;;;;4.43;1.58;;;1.50;99.90;;;;;;4995718;28;20642;-84
2021/12/02 13:22:45;;;;;;;5.85;2.10;;;1.50;99.90;;;;;;5011825;28;20149;-83
2021/12/02 13:25:50;;;;;;;15.38;2.40;;;1.40;99.90;;;;;;4990186;28;20046;-85
2021/12/02 13:28:21;;;;;;;7.07;2.38;;;1.40;99.90;;;;;;4989629;28;20058;-87
2021/12/02 13:30:51;;;;;;;7.03;2.28;;;1.30;99.90;;;;;;4999874;28;20072;-85
2021/12/02 13:33:46;;;;;;;10.60;1.67;;;1.30;99.90;;;;;;5013136;28;20045;-85
2021/12/02 13:36:15;;;;;;;11.48;1.70;;;1.40;99.90;;;;;;5012529;28;20053;-87
2021/12/02 13:39:05;;;;;;;6.13;1.75;;;1.40;99.90;;;;;;4995239;28;20073;-87
2021/12/02 13:41:50;;;;;;;8.02;1.95;;;1.40;99.90;;;;;;4986224;28;20076;-87
2021/12/02 13:44:23;;;;;;;12.00;1.88;;;1.40;99.90;;;;;;4995641;28;20078;-89
2021/12/02 13:46:53;;;;;;;9.32;2.30;;;1.40;99.90;;;;;;4992433;28;20054;-88
2021/12/02 13:49:33;;;;;;;17.50;2.15;;;1.30;99.90;;;;;;4994751;28;20085;-88
2021/12/02 13:52:30;;;;;;;18.95;3.08;;;1.40;99.90;;;;;;4994761;28;20601;-89
2021/12/02 13:55:17;;;;;;;11.93;2.63;;;1.30;99.90;;;;;;4999606;28;20054;-88
2021/12/02 13:57:50;;;;;;;15.40;2.60;;;1.30;99.90;;;;;;4997512;28;20084;-88
2021/12/02 14:00:29;;;;;;;17.90;5.45;;;1.30;99.90;;;;;;4999987;28;20053;-85
2021/12/02 14:03:19;;;;;;;19.83;4.10;;;1.40;99.90;;;;;;4995038;28;20049;-90
2021/12/02 14:05:51;;;;;;;8.55;4.18;;;1.40;99.90;;;;;;5000115;28;20053;-90
2021/12/02 14:08:29;;;;;;;12.85;4.90;;;1.30;99.90;;;;;;4997606;28;20076;-89
2021/12/02 14:10:56;;;;;;;16.90;4.15;;;1.30;99.90;;;;;;4989374;28;20085;-87